Time;durP1;ratioP1;P1;durP2;ratioP2;P2;SDS_P1;SDS_P2;PMS_P1;PMS_P2;Temp;Humidity;BMP_temperature;BMP_pressure;BME280_temperature;BME280_humidity;BME280_pressure;Samples;Min_cycle;Max_cycle;Signal;HPM_P1;HPM_P2
2022/05/29 00:00:40;;;;;;;8.13;2.50;;;;;;;8.20;96.20;101803.03;4989269;28;20038;-64
2022/05/29 00:03:05;;;;;;;5.53;2.35;;;;;;;8.15;96.62;101805.34;4988471;28;20053;-65
2022/05/29 00:05:31;;;;;;;5.05;2.35;;;;;;;8.11;97.19;101798.19;4988791;28;20030;-64
2022/05/29 00:07:56;;;;;;;5.85;2.20;;;;;;;8.08;96.87;101800.63;4988354;28;20037;-64
2022/05/29 00:10:22;;;;;;;5.47;2.55;;;;;;;8.03;97.72;101789.13;4988666;28;20046;-65
2022/05/29 00:12:47;;;;;;;4.95;2.30;;;;;;;8.01;98.46;101798.47;4988403;28;20038;-65
2022/05/29 00:15:13;;;;;;;4.50;1.98;;;;;;;8.00;97.60;101791.56;4988976;28;20187;-65
2022/05/29 00:17:39;;;;;;;7.10;2.20;;;;;;;8.00;97.55;101791.56;4989006;28;20137;-64
2022/05/29 00:20:05;;;;;;;5.05;2.03;;;;;;;7.96;97.33;101787.00;4988424;28;20129;-64
2022/05/29 00:22:32;;;;;;;5.80;2.65;;;;;;;7.89;97.69;101784.09;4988577;28;20092;-64
2022/05/29 00:24:57;;;;;;;5.13;2.47;;;;;;;7.86;98.18;101778.72;4988185;28;20041;-64
2022/05/29 00:27:23;;;;;;;4.70;2.10;;;;;;;7.83;98.38;101781.13;4988758;28;20114;-64
2022/05/29 00:29:49;;;;;;;7.57;2.10;;;;;;;7.80;98.69;101771.53;4988284;28;20550;-64
2022/05/29 00:32:14;;;;;;;7.55;2.33;;;;;;;7.80;98.23;101773.22;4988052;28;20109;-65
2022/05/29 00:34:39;;;;;;;5.00;2.05;;;;;;;7.76;98.03;101768.66;4988908;28;20030;-64
2022/05/29 00:37:07;;;;;;;5.90;1.90;;;;;;;7.72;99.55;101777.06;4988190;28;20026;-65
2022/05/29 00:39:32;;;;;;;5.03;2.08;;;;;;;7.73;99.48;101773.66;4988400;28;20684;-66
2022/05/29 00:41:58;;;;;;;3.97;2.10;;;;;;;7.71;99.68;101780.41;4988374;28;20109;-64
2022/05/29 00:44:30;;;;;;;6.20;2.47;;;;;;;7.65;100.00;101766.34;4988202;28;20033;-64
2022/05/29 00:46:59;;;;;;;5.93;2.30;;;;;;;7.63;100.00;101762.78;4988279;28;20124;-64
2022/05/29 00:49:33;;;;;;;4.20;2.25;;;;;;;7.61;100.00;101759.22;4988506;28;20489;-64
2022/05/29 00:52:04;;;;;;;5.70;2.15;;;;;;;7.61;100.00;101756.63;4970744;28;20042;-65
2022/05/29 00:54:37;;;;;;;5.25;2.38;;;;;;;7.64;100.00;101759.44;4988142;28;20030;-64
2022/05/29 00:57:03;;;;;;;6.05;2.25;;;;;;;7.71;100.00;101754.59;4988673;28;20022;-64
2022/05/29 00:59:31;;;;;;;6.25;2.17;;;;;;;7.74;100.00;101747.03;4987700;28;20038;-66
2022/05/29 01:02:01;;;;;;;7.18;2.28;;;;;;;7.83;100.00;101750.16;4988096;28;20136;-65
2022/05/29 01:04:26;;;;;;;5.10;2.25;;;;;;;7.90;100.00;101754.88;4988384;28;20026;-65
2022/05/29 01:06:52;;;;;;;4.50;2.17;;;;;;;7.96;100.00;101751.75;4988165;28;20061;-66
2022/05/29 01:09:18;;;;;;;5.57;2.85;;;;;;;7.98;100.00;101742.44;4987697;28;20059;-64
2022/05/29 01:12:06;;;;;;;5.53;1.70;;;;;;;8.02;99.59;101746.06;4988344;28;20435;-65
2022/05/29 01:14:34;;;;;;;5.60;2.00;;;;;;;8.02;100.00;101746.06;4987909;28;20067;-65
2022/05/29 01:17:10;;;;;;;7.25;2.13;;;;;;;8.02;100.00;101741.78;4987830;28;20034;-65
2022/05/29 01:19:57;;;;;;;6.22;2.25;;;;;;;7.98;100.00;101738.94;4987201;28;20412;-65
2022/05/29 01:22:50;;;;;;;4.82;1.95;;;;;;;7.99;100.00;101740.72;4987517;28;20023;-65
2022/05/29 01:25:36;;;;;;;7.07;2.53;;;;;;;8.00;100.00;101732.19;4987693;28;20539;-65
2022/05/29 01:28:12;;;;;;;8.25;2.17;;;;;;;7.99;100.00;101726.13;4988076;28;20053;-65
2022/05/29 01:30:55;;;;;;;7.03;2.30;;;;;;;8.00;100.00;101725.34;4987628;28;20118;-65
2022/05/29 01:33:41;;;;;;;5.60;2.20;;;;;;;8.02;100.00;101721.13;4987380;28;20026;-65
2022/05/29 01:36:38;;;;;;;5.85;2.38;;;;;;;8.01;100.00;101721.03;4987298;28;20025;-65
2022/05/29 01:39:22;;;;;;;9.40;2.75;;;;;;;8.02;100.00;101721.13;4986958;28;20068;-64
2022/05/29 01:42:01;;;;;;;7.10;2.13;;;;;;;8.03;100.00;101727.19;4987739;28;20030;-64
2022/05/29 01:44:41;;;;;;;6.38;2.45;;;;;;;8.04;100.00;101716.06;4987753;28;20149;-65
2022/05/29 01:47:14;;;;;;;6.20;2.28;;;;;;;8.07;100.00;101723.09;4987534;28;20076;-65
2022/05/29 01:49:46;;;;;;;10.73;2.40;;;;;;;8.10;100.00;101716.41;4987636;28;20030;-65
2022/05/29 01:52:41;;;;;;;7.60;3.30;;;;;;;8.11;100.00;101715.59;4987761;28;20026;-65
2022/05/29 01:55:11;;;;;;;4.97;2.58;;;;;;;8.12;100.00;101717.38;4974775;28;20102;-65
2022/05/29 01:57:41;;;;;;;10.48;2.50;;;;;;;8.10;100.00;101703.50;4987856;28;20029;-65
2022/05/29 02:00:09;;;;;;;8.13;2.70;;;;;;;8.07;100.00;101705.00;4987829;28;20430;-64
2022/05/29 02:02:38;;;;;;;8.88;2.30;;;;;;;8.05;100.00;101703.25;4987926;28;20034;-65
2022/05/29 02:05:09;;;;;;;4.60;2.45;;;;;;;8.03;100.00;101701.38;4987777;28;20372;-64
2022/05/29 02:07:50;;;;;;;5.20;2.55;;;;;;;8.02;100.00;101702.19;4987019;28;20034;-64
2022/05/29 02:10:20;;;;;;;9.57;2.83;;;;;;;8.08;100.00;101704.22;4987618;28;20027;-66
2022/05/29 02:13:10;;;;;;;6.35;2.67;;;;;;;8.13;100.00;101700.22;4987538;28;20030;-65
2022/05/29 02:15:43;;;;;;;7.93;2.90;;;;;;;8.16;100.00;101701.28;4986955;28;20121;-65
2022/05/29 02:18:22;;;;;;;7.45;2.63;;;;;;;8.20;100.00;101698.84;4987019;28;20026;-64
2022/05/29 02:20:52;;;;;;;6.43;2.40;;;;;;;8.22;100.00;101697.25;4987305;28;20046;-64
2022/05/29 02:23:31;;;;;;;6.93;2.53;;;;;;;8.26;100.00;101697.50;4987548;28;20042;-65
2022/05/29 02:25:58;;;;;;;6.93;2.50;;;;;;;8.32;100.00;101691.78;4987508;28;20026;-65
2022/05/29 02:28:46;;;;;;;8.98;2.80;;;;;;;8.35;100.00;101694.53;4987665;28;20545;-65
2022/05/29 02:31:29;;;;;;;5.85;2.42;;;;;;;8.32;100.00;101686.63;4987074;28;20388;-64
2022/05/29 02:34:10;;;;;;;6.05;2.92;;;;;;;8.29;100.00;101694.19;4990806;28;20177;-65
2022/05/29 02:37:05;;;;;;;8.80;2.63;;;;;;;8.26;100.00;101688.84;4991142;28;20030;-65
2022/05/29 02:39:57;;;;;;;9.50;2.65;;;;;;;8.22;100.00;101680.03;4990171;28;20027;-65
2022/05/29 02:43:00;;;;;;;6.38;2.72;;;;;;;8.19;100.00;101674.72;4990340;28;20029;-64
2022/05/29 02:45:35;;;;;;;8.07;2.75;;;;;;;8.15;100.00;101675.34;4990373;28;20471;-65
2022/05/29 02:48:16;;;;;;;6.47;2.08;;;;;;;8.12;100.00;101676.06;4990371;28;20149;-65
2022/05/29 02:50:58;;;;;;;9.50;2.67;;;;;;;8.11;100.00;101679.44;4990284;28;20442;-65
2022/05/29 02:53:25;;;;;;;7.93;2.78;;;;;;;8.12;100.00;101673.50;4989983;28;20041;-64
2022/05/29 02:55:50;;;;;;;5.30;2.47;;;;;;;8.15;100.00;101670.19;4990583;28;20146;-65
2022/05/29 02:58:29;;;;;;;11.68;2.70;;;;;;;8.16;100.00;101667.72;4990455;28;20498;-65
2022/05/29 03:01:03;;;;;;;7.35;3.28;;;;;;;8.16;100.00;101665.13;4990352;28;20038;-64
2022/05/29 03:03:58;;;;;;;5.57;2.60;;;;;;;8.15;100.00;101671.06;4989771;28;20042;-64
2022/05/29 03:06:54;;;;;;;6.38;2.60;;;;;;;8.16;100.00;101662.53;4990307;28;20181;-65
2022/05/29 03:09:48;;;;;;;11.18;3.38;;;;;;;8.20;100.00;101667.88;4989688;28;20452;-65
2022/05/29 03:12:49;;;;;;;7.85;3.10;;;;;;;8.23;100.00;101657.69;4990045;28;20113;-64
2022/05/29 03:15:31;;;;;;;11.32;3.33;;;;;;;8.27;100.00;101668.28;4967334;28;20042;-64
2022/05/29 03:18:24;;;;;;;6.63;2.70;;;;;;;8.28;100.00;101659.72;4990116;28;20117;-65
2022/05/29 03:21:37;;;;;;;7.15;3.03;;;;;;;8.30;100.00;101654.66;4989975;28;20050;-65
2022/05/29 03:24:16;;;;;;;8.35;3.17;;;;;;;8.33;100.00;101654.81;4975060;28;20065;-65
2022/05/29 03:26:47;;;;;;;6.15;2.63;;;;;;;8.37;100.00;101661.03;4988283;28;20030;-65
2022/05/29 03:29:48;;;;;;;8.35;3.20;;;;;;;8.35;99.59;101653.19;4988410;28;20048;-65
2022/05/29 03:32:15;;;;;;;7.05;3.33;;;;;;;8.33;100.00;101656.53;4983906;28;20046;-65
2022/05/29 03:34:40;;;;;;;5.45;3.10;;;;;;;8.32;100.00;101653.03;4987835;28;20268;-65
2022/05/29 03:37:06;;;;;;;7.30;3.15;;;;;;;8.32;100.00;101655.63;4986649;28;20029;-64
2022/05/29 03:39:32;;;;;;;8.00;3.35;;;;;;;8.34;100.00;101646.28;4987752;28;20030;-65
2022/05/29 03:41:58;;;;;;;7.57;3.03;;;;;;;8.31;100.00;101646.09;4987097;28;20137;-65
2022/05/29 03:44:25;;;;;;;8.43;3.13;;;;;;;8.31;100.00;101646.09;4987108;28;20534;-65
2022/05/29 03:46:50;;;;;;;9.52;3.13;;;;;;;8.32;100.00;101647.88;4987088;28;20392;-65
2022/05/29 03:49:19;;;;;;;6.28;3.42;;;;;;;8.31;100.00;101645.22;4989034;28;20061;-65
2022/05/29 03:51:44;;;;;;;11.25;3.40;;;;;;;8.27;100.00;101637.28;4989361;28;20027;-64
2022/05/29 03:54:11;;;;;;;9.20;3.13;;;;;;;8.30;100.00;101636.56;4989166;28;20097;-65
2022/05/29 03:56:37;;;;;;;9.25;3.35;;;;;;;8.31;100.00;101640.91;4989437;28;20046;-65
2022/05/29 03:59:03;;;;;;;10.43;3.65;;;;;;;8.34;100.00;101635.94;4988737;28;20057;-64
2022/05/29 04:01:29;;;;;;;7.53;3.10;;;;;;;8.39;100.00;101637.06;4988982;28;20225;-65
2022/05/29 04:03:55;;;;;;;7.82;3.20;;;;;;;8.43;100.00;101635.53;4989369;28;20177;-64
2022/05/29 04:06:21;;;;;;;7.82;3.15;;;;;;;8.47;100.00;101626.28;4988986;28;20026;-65
2022/05/29 04:14:16;;;;;;;8.25;2.78;;;;;;;8.54;100.00;101633.53;4988883;28;20033;-64
2022/05/29 04:16:41;;;;;;;11.38;3.40;;;;;;;8.58;100.00;101637.22;4989457;28;20026;-65
2022/05/29 04:19:06;;;;;;;7.60;2.58;;;;;;;8.60;100.00;101625.25;4988614;28;20505;-65
2022/05/29 04:21:32;;;;;;;6.93;2.60;;;;;;;8.65;100.00;101636.72;4988534;28;20033;-65
2022/05/29 04:23:58;;;;;;;10.90;2.58;;;;;;;8.68;100.00;101630.81;4988969;28;20141;-65
2022/05/29 04:26:23;;;;;;;9.10;2.85;;;;;;;8.69;100.00;101622.28;4988695;28;20124;-64
2022/05/29 04:28:48;;;;;;;10.18;2.47;;;;;;;8.71;100.00;101630.97;4988778;28;20096;-65
2022/05/29 04:31:14;;;;;;;5.45;2.47;;;;;;;8.73;100.00;101624.19;4988533;28;20056;-64
2022/05/29 04:33:39;;;;;;;6.80;2.90;;;;;;;8.75;100.00;101622.56;4988605;28;20033;-65
2022/05/29 04:36:05;;;;;;;6.40;2.60;;;;;;;8.75;100.00;101627.75;4987871;28;20084;-65
2022/05/29 04:38:30;;;;;;;7.72;2.88;;;;;;;8.76;100.00;101632.13;4988618;28;20360;-64
2022/05/29 04:40:57;;;;;;;8.90;3.13;;;;;;;8.79;100.00;101639.13;4988549;28;20290;-64
2022/05/29 04:43:23;;;;;;;5.90;2.70;;;;;;;8.80;100.00;101646.06;4988334;28;20030;-65
2022/05/29 04:45:54;;;;;;;9.70;3.35;;;;;;;8.76;100.00;101650.22;4988468;28;20375;-65
2022/05/29 04:48:19;;;;;;;6.97;2.93;;;;;;;8.72;100.00;101646.56;4987792;28;20077;-65
2022/05/29 04:50:45;;;;;;;10.85;3.63;;;;;;;8.67;100.00;101644.56;4988456;28;20320;-64
2022/05/29 04:53:11;;;;;;;9.48;3.78;;;;;;;8.63;100.00;101649.53;4988274;28;20030;-65
2022/05/29 04:55:39;;;;;;;10.90;3.83;;;;;;;8.64;100.00;101643.59;4987834;28;20030;-64
2022/05/29 04:58:05;;;;;;;8.85;3.65;;;;;;;8.63;100.00;101638.34;4987718;28;20419;-64
2022/05/29 05:00:30;;;;;;;7.45;3.50;;;;;;;8.65;100.00;101637.59;4988337;28;20041;-65
2022/05/29 05:02:55;;;;;;;9.95;4.32;;;;;;;8.65;100.00;101629.84;4988023;28;20070;-64
2022/05/29 05:05:20;;;;;;;7.57;3.72;;;;;;;8.67;100.00;101622.16;4988195;28;20030;-65
2022/05/29 05:07:46;;;;;;;10.00;3.65;;;;;;;8.68;100.00;101620.47;4987785;28;20042;-65
2022/05/29 05:10:15;;;;;;;10.18;3.80;;;;;;;8.64;100.00;101625.50;4988270;28;20434;-65
2022/05/29 05:12:41;;;;;;;9.43;3.42;;;;;;;8.63;100.00;101623.69;4988245;28;20499;-65
2022/05/29 05:15:08;;;;;;;7.70;3.40;;;;;;;8.61;100.00;101622.75;4986919;28;20449;-65
2022/05/29 05:17:34;;;;;;;9.38;3.85;;;;;;;8.59;100.00;101620.88;4987614;28;20034;-65
2022/05/29 05:19:59;;;;;;;8.50;3.50;;;;;;;8.54;100.00;101620.63;4988382;28;20043;-64
2022/05/29 05:22:24;;;;;;;7.85;3.88;;;;;;;8.53;100.00;101616.25;4987984;28;20022;-64
2022/05/29 05:24:49;;;;;;;9.30;4.10;;;;;;;8.55;100.00;101622.38;4988443;28;20030;-65
2022/05/29 05:27:15;;;;;;;9.13;4.00;;;;;;;8.54;100.00;101615.47;4987861;28;20049;-65
2022/05/29 05:29:41;;;;;;;9.82;4.75;;;;;;;8.57;100.00;101613.06;4987598;28;20034;-66
2022/05/29 05:32:07;;;;;;;9.73;4.32;;;;;;;8.57;100.00;101618.22;4987738;28;20026;-65
2022/05/29 05:34:32;;;;;;;8.02;4.50;;;;;;;8.61;100.00;101615.00;4988008;28;20033;-64
2022/05/29 05:36:58;;;;;;;10.07;4.85;;;;;;;8.65;100.00;101614.34;4988072;28;20453;-64
2022/05/29 05:39:23;;;;;;;7.82;4.38;;;;;;;8.69;100.00;101606.78;4987271;28;20030;-66
2022/05/29 05:41:49;;;;;;;7.93;3.85;;;;;;;8.73;100.00;101613.84;4988205;28;20129;-64
2022/05/29 05:44:14;;;;;;;7.85;3.78;;;;;;;8.75;100.00;101612.25;4988115;28;20471;-64
2022/05/29 05:46:45;;;;;;;8.25;3.92;;;;;;;8.79;100.00;101609.03;4987840;28;20061;-64
2022/05/29 05:49:10;;;;;;;7.03;3.70;;;;;;;8.83;100.00;101608.34;4987670;28;20034;-65
2022/05/29 05:51:35;;;;;;;11.05;4.28;;;;;;;8.87;100.00;101609.38;4987843;28;20112;-65
2022/05/29 05:54:00;;;;;;;5.70;3.60;;;;;;;8.91;100.00;101607.84;4987501;28;20030;-64
2022/05/29 05:56:26;;;;;;;6.88;4.40;;;;;;;8.97;100.00;101598.75;4987736;28;20105;-65
2022/05/29 05:58:51;;;;;;;7.80;4.68;;;;;;;9.01;100.00;101615.28;4987543;28;20034;-64
2022/05/29 06:01:17;;;;;;;5.65;3.83;;;;;;;9.04;100.00;101607.69;4987410;28;20022;-64
2022/05/29 06:03:43;;;;;;;9.60;4.35;;;;;;;9.08;100.00;101601.88;4987479;28;20035;-64
2022/05/29 06:06:09;;;;;;;9.70;5.43;;;;;;;9.12;100.00;101608.09;4989045;28;20026;-65
2022/05/29 06:08:35;;;;;;;9.95;5.30;;;;;;;9.17;100.00;101605.72;4991569;28;20671;-64
2022/05/29 06:11:00;;;;;;;10.25;4.70;;;;;;;9.23;100.00;101613.75;4991301;28;20288;-65
2022/05/29 06:13:25;;;;;;;10.48;5.43;;;;;;;9.25;100.00;101604.38;4990884;28;20030;-65
2022/05/29 06:15:51;;;;;;;11.60;4.80;;;;;;;9.33;100.00;101608.25;4990609;28;20117;-64
2022/05/29 06:18:18;;;;;;;7.70;4.47;;;;;;;9.38;100.00;101595.53;4991093;28;20363;-64
2022/05/29 06:20:44;;;;;;;8.98;4.53;;;;;;;9.37;100.00;101602.41;4990926;28;20058;-66
2022/05/29 06:23:10;;;;;;;7.05;4.18;;;;;;;9.45;100.00;101609.66;4991170;28;20026;-65
2022/05/29 06:25:38;;;;;;;7.75;4.15;;;;;;;9.44;100.00;101603.63;4990251;28;20084;-65
2022/05/29 06:28:04;;;;;;;7.07;4.53;;;;;;;9.49;100.00;101601.25;4990517;28;20398;-65
2022/05/29 06:30:30;;;;;;;5.80;4.50;;;;;;;9.54;100.00;101602.34;4991049;28;20041;-64
2022/05/29 06:32:55;;;;;;;9.10;5.20;;;;;;;9.59;100.00;101606.03;4990529;28;20034;-65
2022/05/29 06:35:21;;;;;;;11.23;4.40;;;;;;;9.68;100.00;101604.69;4973451;28;20037;-65
2022/05/29 06:37:46;;;;;;;6.65;4.30;;;;;;;9.75;100.00;101595.56;4991157;28;20014;-65
2022/05/29 06:40:13;;;;;;;5.70;4.60;;;;;;;9.86;100.00;101609.88;4991060;28;20455;-64
2022/05/29 06:42:38;;;;;;;9.55;5.20;;;;;;;9.98;100.00;101604.41;4990864;28;20034;-65
2022/05/29 06:45:06;;;;;;;9.40;5.00;;;;;;;10.09;100.00;101616.13;4990935;28;20033;-65
2022/05/29 06:47:32;;;;;;;8.95;4.88;;;;;;;10.16;100.00;101611.25;4990259;28;20125;-65
2022/05/29 06:49:58;;;;;;;9.68;4.82;;;;;;;10.20;100.00;101611.44;4990209;28;20038;-65
2022/05/29 06:52:24;;;;;;;5.40;4.28;;;;;;;10.23;100.00;101613.31;4990592;28;20019;-64
2022/05/29 06:54:49;;;;;;;10.73;4.18;;;;;;;10.29;100.00;101610.97;4990896;28;20030;-64
2022/05/29 06:57:36;;;;;;;7.63;3.85;;;;;;;10.32;100.00;101600.78;4990250;28;20034;-65
2022/05/29 07:08:03;;;;;;;7.70;4.28;;;;;;;10.51;100.00;101596.44;4990425;28;20066;-65
2022/05/29 07:10:30;;;;;;;8.50;4.18;;;;;;;10.60;100.00;101601.13;4990259;28;20534;-65
2022/05/29 07:12:56;;;;;;;11.60;4.78;;;;;;;10.64;100.00;101602.16;4990120;28;20033;-65
2022/05/29 07:15:22;;;;;;;7.40;3.95;;;;;;;10.66;100.00;101606.63;4989839;28;20453;-65
2022/05/29 07:17:47;;;;;;;6.43;3.88;;;;;;;10.57;100.00;101601.91;4989696;28;20100;-65
2022/05/29 07:20:13;;;;;;;5.75;3.65;;;;;;;10.58;100.00;101602.78;4989805;28;20477;-65
2022/05/29 07:22:40;;;;;;;8.40;4.70;;;;;;;10.59;100.00;101595.91;4990133;28;20089;-64
2022/05/29 07:25:06;;;;;;;8.50;4.47;;;;;;;10.53;100.00;101599.09;4989803;28;20344;-64
2022/05/29 07:27:32;;;;;;;9.02;4.65;;;;;;;10.55;100.00;101593.19;4989735;28;20037;-65
2022/05/29 07:29:57;;;;;;;6.80;4.28;;;;;;;10.62;100.00;101598.63;4990056;28;20034;-64
2022/05/29 07:32:23;;;;;;;6.75;4.05;;;;;;;10.68;100.00;101583.34;4989999;28;20030;-65
2022/05/29 07:34:49;;;;;;;7.78;4.30;;;;;;;10.81;100.00;101595.13;4989676;28;20093;-64
2022/05/29 07:37:15;;;;;;;6.88;4.65;;;;;;;10.92;100.00;101590.38;4972208;28;20467;-64
2022/05/29 07:39:44;;;;;;;9.27;4.70;;;;;;;11.01;100.00;101587.31;4989971;28;20034;-65
2022/05/29 07:44:54;;;;;;;9.02;4.30;;;;;;;11.11;100.00;101589.47;4989409;28;20069;-65
2022/05/29 07:47:21;;;;;;;9.85;4.95;;;;;;;11.16;100.00;101592.25;4989699;28;20546;-64
2022/05/29 07:49:47;;;;;;;9.98;3.60;;;;;;;11.16;100.00;101590.56;4989105;28;20026;-65
2022/05/29 07:52:12;;;;;;;9.20;3.55;;;;;;;11.17;100.00;101589.72;4989179;28;20029;-64
2022/05/29 07:54:37;;;;;;;9.18;3.08;;;;;;;11.18;100.00;101590.63;4989146;28;20037;-65
2022/05/29 07:57:03;;;;;;;5.97;3.10;;;;;;;11.20;100.00;101588.06;4989182;28;20400;-64
2022/05/29 07:59:29;;;;;;;7.97;2.97;;;;;;;11.20;100.00;101583.78;4989027;28;20030;-64
2022/05/29 08:01:55;;;;;;;9.43;2.90;;;;;;;11.23;100.00;101583.00;4989659;28;20066;-65
2022/05/29 08:04:20;;;;;;;6.18;2.80;;;;;;;11.23;100.00;101583.00;4989476;28;20294;-65
2022/05/29 08:06:45;;;;;;;8.52;2.53;;;;;;;11.26;100.00;101578.84;4989050;28;20169;-65
2022/05/29 08:09:11;;;;;;;6.28;2.03;;;;;;;11.27;100.00;101580.63;4988961;28;20034;-65
2022/05/29 08:11:36;;;;;;;9.73;2.95;;;;;;;11.33;99.43;101577.41;4989075;28;20117;-65
2022/05/29 08:14:01;;;;;;;10.02;2.47;;;;;;;11.45;98.97;101579.59;4989426;28;20470;-65
2022/05/29 08:16:27;;;;;;;7.22;2.67;;;;;;;11.77;100.00;101572.19;4988872;28;20030;-65
2022/05/29 08:18:53;;;;;;;9.30;2.72;;;;;;;12.04;98.02;101575.78;4988854;28;20367;-65
2022/05/29 08:21:19;;;;;;;6.75;2.33;;;;;;;12.25;95.39;101570.53;4988675;28;20064;-64
2022/05/29 08:30:37;;;;;;;8.65;2.75;;;;;;;12.41;95.59;101581.47;4988748;28;20471;-65
2022/05/29 08:31:57;;;;;;;7.15;2.70;;;;;;;12.44;88.46;101563.41;4989004;28;20418;-65
2022/05/29 08:34:22;;;;;;;8.40;2.30;;;;;;;12.61;89.85;101563.09;4988839;28;20026;-65
2022/05/29 08:36:48;;;;;;;7.03;2.03;;;;;;;12.63;88.82;101566.66;4988505;28;20088;-65
2022/05/29 08:39:15;;;;;;;5.07;2.10;;;;;;;12.52;89.98;101561.06;4988424;28;20034;-65
2022/05/29 08:41:46;;;;;;;4.90;2.50;;;;;;;12.36;89.92;101560.53;4988018;28;20558;-65
2022/05/29 08:44:13;;;;;;;5.90;2.17;;;;;;;12.20;90.32;101553.88;4988696;28;20037;-65
2022/05/29 08:46:53;;;;;;;11.73;2.63;;;;;;;12.07;90.30;101559.44;4988414;28;20030;-65
2022/05/29 08:49:24;;;;;;;11.32;3.03;;;;;;;11.98;94.75;101560.84;4988703;28;20497;-65
2022/05/29 08:52:18;;;;;;;8.95;2.72;;;;;;;11.92;95.16;101563.22;4988676;28;20452;-65
2022/05/29 08:55:06;;;;;;;8.75;3.35;;;;;;;11.96;96.23;101559.91;4987688;28;20057;-65
2022/05/29 08:57:59;;;;;;;7.53;2.28;;;;;;;12.01;95.85;101560.97;4988376;28;20470;-65
2022/05/29 09:00:43;;;;;;;6.53;2.40;;;;;;;12.12;93.79;101555.31;4988233;28;20037;-65
2022/05/29 09:03:20;;;;;;;8.10;2.83;;;;;;;12.28;95.40;101561.97;4988004;28;20030;-65
2022/05/29 09:06:12;;;;;;;5.78;2.10;;;;;;;12.44;92.55;101550.41;4988066;28;20449;-65
2022/05/29 09:08:45;;;;;;;4.97;2.97;;;;;;;12.82;94.61;101551.69;4988178;28;20247;-66
2022/05/29 09:11:47;;;;;;;9.30;2.80;;;;;;;13.31;88.37;101538.53;4987758;28;20049;-65
2022/05/29 09:14:18;;;;;;;7.75;2.40;;;;;;;13.72;85.29;101539.81;4976945;28;20042;-65
2022/05/29 09:16:45;;;;;;;;;;;;;;;14.02;82.24;101537.22;4988234;28;20031;-65
2022/05/29 09:19:35;;;;;;;6.00;2.75;;;;;;;14.38;82.46;101530.38;4988245;28;19968;-65
2022/05/29 09:22:04;;;;;;;6.10;2.38;;;;;;;13.92;73.88;101520.41;4988062;28;20030;-65
2022/05/29 09:25:07;;;;;;;5.22;2.63;;;;;;;13.88;78.74;101518.59;4987993;28;20061;-65
2022/05/29 09:27:35;;;;;;;6.22;2.50;;;;;;;13.69;78.97;101518.03;4987472;28;20066;-66
2022/05/29 09:30:01;;;;;;;6.47;1.73;;;;;;;13.51;78.59;101528.72;4987843;28;20441;-65
2022/05/29 09:32:30;;;;;;;6.70;2.25;;;;;;;13.37;79.99;101520.50;4988085;28;20084;-65
2022/05/29 09:35:42;;;;;;;3.85;2.08;;;;;;;13.24;83.98;101518.38;4988348;28;20505;-65
2022/05/29 09:38:22;;;;;;;6.57;2.60;;;;;;;13.09;84.33;101524.84;4926996;29;20079;-65
2022/05/29 09:40:58;;;;;;;5.28;1.90;;;;;;;13.00;87.73;101524.53;4982519;28;20063;-66
2022/05/29 09:43:27;;;;;;;6.07;2.03;;;;;;;12.91;87.85;101520.81;4991875;28;20022;-65
2022/05/29 09:45:52;;;;;;;6.82;2.05;;;;;;;12.85;88.31;101516.28;4991643;28;20547;-65
2022/05/29 09:51:16;;;;;;;6.13;1.95;;;;;;;13.71;87.61;101512.00;4991625;28;20072;-65
2022/05/29 09:53:47;;;;;;;4.80;2.13;;;;;;;14.16;79.66;101508.06;4991513;28;20105;-65
2022/05/29 09:56:14;;;;;;;5.15;1.30;;;;;;;14.55;76.31;101501.28;4990915;28;20026;-65
2022/05/29 09:58:51;;;;;;;6.00;2.53;;;;;;;14.96;76.21;101497.09;4991665;28;20089;-64
2022/05/29 10:01:36;;;;;;;6.32;1.77;;;;;;;15.29;75.89;101487.41;4991322;28;20038;-65
2022/05/29 10:04:05;;;;;;;4.13;1.73;;;;;;;15.45;74.12;101492.13;4991553;28;20117;-66
2022/05/29 10:06:32;;;;;;;7.30;2.33;;;;;;;15.36;73.33;101490.19;4991004;28;20117;-65
2022/05/29 10:09:27;;;;;;;3.85;1.98;;;;;;;14.94;70.95;101496.16;4990742;28;20038;-65
2022/05/29 10:12:16;;;;;;;7.65;2.33;;;;;;;14.59;75.00;101486.59;4989386;28;20185;-65
2022/05/29 10:14:44;;;;;;;7.40;2.00;;;;;;;14.33;73.35;101490.28;4991077;28;20034;-65
2022/05/29 10:17:32;;;;;;;4.75;1.80;;;;;;;14.22;74.01;101484.78;4990775;28;20030;-66
2022/05/29 10:19:58;;;;;;;7.18;1.90;;;;;;;14.28;77.64;101492.75;4990262;28;20113;-65
2022/05/29 10:22:30;;;;;;;6.35;1.83;;;;;;;14.25;76.49;101497.00;4991362;28;20034;-65
2022/05/29 10:24:56;;;;;;;3.13;1.33;;;;;;;14.12;75.81;101495.78;4990855;28;20019;-65
2022/05/29 10:27:35;;;;;;;1.45;0.85;;;;;;;13.88;73.98;101492.53;4991289;28;20030;-65
2022/05/29 10:30:08;;;;;;;3.58;1.15;;;;;;;13.68;75.14;101494.56;4973208;28;20142;-64
2022/05/29 10:32:38;;;;;;;2.08;0.82;;;;;;;13.52;74.94;101487.97;4990296;28;20092;-65
2022/05/29 10:35:15;;;;;;;1.42;0.65;;;;;;;13.44;77.76;101496.44;4990798;28;20107;-65
2022/05/29 10:37:43;;;;;;;2.45;0.50;;;;;;;13.43;77.31;101499.00;4990525;28;20076;-65
2022/05/29 10:40:13;;;;;;;2.78;0.60;;;;;;;13.43;76.92;101497.28;4990627;28;20146;-65
2022/05/29 10:42:43;;;;;;;1.38;0.40;;;;;;;13.45;77.79;101492.97;4990530;28;20034;-65
2022/05/29 10:45:17;;;;;;;2.47;0.43;;;;;;;13.48;78.18;101491.31;4989838;28;20113;-66
2022/05/29 10:47:55;;;;;;;2.40;0.52;;;;;;;13.51;77.04;101496.63;4990439;28;20027;-65
2022/05/29 10:50:28;;;;;;;1.50;0.55;;;;;;;13.55;79.65;101495.91;4990488;28;20430;-65
2022/05/29 10:53:26;;;;;;;0.88;0.50;;;;;;;13.61;82.38;101493.50;4989049;28;20034;-65
2022/05/29 10:56:18;;;;;;;2.25;0.60;;;;;;;13.64;82.53;101490.97;4990361;28;20122;-64
2022/05/29 10:58:51;;;;;;;4.00;0.82;;;;;;;13.61;82.96;101492.59;4990292;28;20113;-65
2022/05/29 11:04:37;;;;;;;1.58;0.60;;;;;;;13.70;82.17;101503.31;4948630;29;20042;-65
2022/05/29 11:07:14;;;;;;;1.50;0.60;;;;;;;13.75;82.86;101501.72;4984958;28;20479;-65
2022/05/29 11:09:57;;;;;;;2.10;0.63;;;;;;;13.83;83.26;101504.56;4990278;28;20241;-65
2022/05/29 11:12:36;;;;;;;2.20;0.55;;;;;;;14.02;78.00;101505.06;4989756;28;20391;-65
2022/05/29 11:15:40;;;;;;;2.45;0.90;;;;;;;14.26;78.61;101496.16;4989736;28;20022;-65
2022/05/29 11:18:20;;;;;;;1.80;0.73;;;;;;;14.58;78.88;101496.13;4990070;28;20037;-65
2022/05/29 11:20:57;;;;;;;2.42;0.90;;;;;;;14.69;74.32;101490.31;4989691;28;20105;-65
2022/05/29 11:23:43;;;;;;;3.97;0.65;;;;;;;14.73;78.16;101489.56;4989434;28;20057;-66
2022/05/29 11:26:21;;;;;;;1.98;0.82;;;;;;;14.60;78.95;101497.06;4990154;28;20407;-65
2022/05/29 11:28:52;;;;;;;3.97;1.30;;;;;;;14.46;83.16;101496.72;4990102;28;20030;-64
2022/05/29 11:31:23;;;;;;;;;;;;;;;14.36;85.31;101495.56;4989744;28;20479;-65
2022/05/29 11:34:04;;;;;;;3.88;1.33;;;;;;;14.28;86.11;101497.97;4989495;28;20169;-64
2022/05/29 11:36:59;;;;;;;2.70;1.07;;;;;;;14.13;86.21;101495.84;4990012;28;20522;-64
2022/05/29 11:39:45;;;;;;;2.65;1.20;;;;;;;13.96;85.35;101484.06;4989541;28;20042;-65
2022/05/29 11:42:17;;;;;;;2.47;0.90;;;;;;;13.83;85.68;101488.91;4989539;28;20046;-65
2022/05/29 11:44:57;;;;;;;3.03;0.90;;;;;;;13.72;87.36;101485.09;4989505;28;20026;-66
2022/05/29 11:53:38;;;;;;;3.75;1.00;;;;;;;13.37;89.82;101489.25;4968364;28;20069;-65
2022/05/29 11:56:07;;;;;;;3.78;1.27;;;;;;;13.34;89.21;101497.00;4969058;28;20105;-65
2022/05/29 11:58:45;;;;;;;1.98;0.88;;;;;;;13.30;89.52;101480.38;4970418;28;20534;-65
2022/05/29 12:01:16;;;;;;;4.03;1.50;;;;;;;13.29;91.99;101486.41;4968734;28;20471;-65
2022/05/29 12:03:47;;;;;;;4.28;0.90;;;;;;;13.27;92.75;101488.13;4963803;28;20034;-66
2022/05/29 12:06:22;;;;;;;2.78;0.77;;;;;;;13.19;91.80;101485.25;4968353;28;20026;-65
2022/05/29 12:09:00;;;;;;;3.17;1.10;;;;;;;13.04;90.43;101483.03;4968439;28;20031;-65
2022/05/29 12:12:07;;;;;;;3.03;1.17;;;;;;;12.92;92.74;101485.25;4968805;28;20387;-65
2022/05/29 12:14:51;;;;;;;1.25;0.47;;;;;;;12.78;92.28;101483.09;4968966;28;20286;-64
2022/05/29 12:17:16;;;;;;;2.78;0.50;;;;;;;12.76;90.08;101489.06;4951449;28;20118;-65
2022/05/29 12:19:49;;;;;;;1.02;0.55;;;;;;;12.65;88.07;101481.78;4969096;28;20137;-65
2022/05/29 12:22:19;;;;;;;2.92;0.82;;;;;;;12.59;92.51;101476.41;4968893;28;20077;-65